This is the latest recevied weather packets stored in our database for station/object K7KAR-2. If no packets are shown the sender has not sent any weather packets the latest 10 day(s).
| Time | Temp. | Humidity | Pressure | Rain* | Wind** | Luminosity | Snow |
|---|---|---|---|---|---|---|---|
| 1777805030 | 8.89° C | 64% | 1015.1 hPa | 0 mm | - | 0 W/m² | - |
| 1777804728 | 8.89° C | 65% | 1015 hPa | 0 mm | - | 0 W/m² | - |
| 1777804426 | 8.89° C | 65% | 1015.4 hPa | 0 mm | - | 0 W/m² | - |
| 1777804123 | 9.44° C | 65% | 1015.3 hPa | 0 mm | - | 0 W/m² | - |
| 1777803819 | 9.44° C | 63% | 1015.1 hPa | 0 mm | - | 0 W/m² | - |
| 1777803515 | 9.44° C | 65% | 1015.3 hPa | 0 mm | - | 0 W/m² | - |
| 1777803213 | 9.44° C | 66% | 1015.4 hPa | 0 mm | - | 0 W/m² | - |
| 1777802909 | 10° C | 57% | 1015.3 hPa | 0 mm | - | 0 W/m² | - |
| 1777802608 | 10° C | 56% | 1014.6 hPa | 0 mm | - | 0 W/m² | - |
| 1777802305 | 10.56° C | 58% | 1014.3 hPa | 0 mm | - | 0 W/m² | - |
| 1777802003 | 9.44° C | 65% | 1016 hPa | 0 mm | - | 0 W/m² | - |
| 1777801700 | 9.44° C | 65% | 1016.7 hPa | 0 mm | - | 0 W/m² | - |
| 1777801398 | 9.44° C | 64% | 1017.2 hPa | 0 mm | - | 0 W/m² | - |
| 1777801094 | 10° C | 62% | 1017 hPa | 0 mm | - | 0 W/m² | - |
| 1777800791 | 10° C | 63% | 1016.9 hPa | 0 mm | - | 0 W/m² | - |
| 1777800486 | 11.11° C | 47% | 1016.5 hPa | 0 mm | - | 0 W/m² | - |
| 1777800183 | 10° C | 47% | 1016.3 hPa | 0 mm | - | 0 W/m² | - |
| 1777799883 | 8.33° C | 51% | 1015.9 hPa | 0 mm | - | 0 W/m² | - |
| 1777799580 | 8.33° C | 55% | 1015.7 hPa | 0 mm | - | 0 W/m² | - |
| 1777799276 | 7.78° C | 56% | 1015.1 hPa | 0 mm | - | 0 W/m² | - |
| 1777798972 | 7.78° C | 55% | 1015.5 hPa | 0 mm | - | 0 W/m² | - |
| 1777798668 | 9.44° C | 51% | 1015.5 hPa | 0 mm | - | 0 W/m² | - |
| 1777798365 | 9.44° C | 45% | 1015.6 hPa | 0 mm | - | 0 W/m² | - |
| 1777798062 | 8.33° C | 51% | 1015.6 hPa | 0 mm | - | 0 W/m² | - |
| 1777797760 | 10.56° C | 45% | 1015.6 hPa | 0 mm | - | 0 W/m² | - |
* Rain latest hour (hover to see other rain measurements)
** Current wind speed in m/s (hover to see current wind gust speed)